AZU4671 SBGR-SBPA
Flight info
| Callsign | AZU4671 |
|---|---|
| Flight time | N/A |
| Altitude | 36000 |
| Route | UBSOD UZ38 VUKMO |
| Aircraft | A20N/M-SDE2E3FGHIRWXY/LB1 |
Departure
| Time | N/A |
|---|---|
| Airport | São Paulo/Guarulhos–Governor André Franco Montoro International Airport (SBGR) |
Arrival
| Time | 2026-05-05 00:16 |
|---|---|
| Airport | Porto Alegre-Salgado Filho International Airport (SBPA) |
| Time | Latitude | Longitude | Altitude | Speed | Heading |
|---|---|---|---|---|---|
| 2026-05-04 23:00 | -23.94884 | -46.94541 | 27586 ft | 405 kts | 217° |
| 2026-05-04 23:00 | -23.97325 | -46.96086 | 27969 ft | 408 kts | 218° |
| 2026-05-04 23:00 | -23.99791 | -46.97648 | 28360 ft | 410 kts | 218° |
| 2026-05-04 23:01 | -24.02267 | -46.99217 | 28746 ft | 413 kts | 218° |
| 2026-05-04 23:01 | -24.04762 | -47.00797 | 29114 ft | 416 kts | 218° |
| 2026-05-04 23:01 | -24.07272 | -47.02388 | 29472 ft | 418 kts | 218° |
| 2026-05-04 23:01 | -24.09797 | -47.03990 | 29812 ft | 421 kts | 219° |
| 2026-05-04 23:02 | -24.12342 | -47.05605 | 30145 ft | 424 kts | 219° |
| 2026-05-04 23:02 | -24.14902 | -47.07232 | 30441 ft | 427 kts | 219° |
| 2026-05-04 23:02 | -24.17471 | -47.08863 | 30794 ft | 427 kts | 219° |
| 2026-05-04 23:02 | -24.20047 | -47.10498 | 31176 ft | 428 kts | 219° |
| 2026-05-04 23:03 | -24.22622 | -47.12134 | 31567 ft | 428 kts | 218° |
| 2026-05-04 23:03 | -24.25192 | -47.13767 | 32044 ft | 425 kts | 219° |
| 2026-05-04 23:03 | -24.27737 | -47.15404 | 32509 ft | 422 kts | 220° |
| 2026-05-04 23:03 | -24.30213 | -47.17107 | 32950 ft | 419 kts | 221° |
| 2026-05-04 23:04 | -24.32631 | -47.18813 | 33397 ft | 416 kts | 221° |
| 2026-05-04 23:04 | -24.35078 | -47.20542 | 33855 ft | 414 kts | 221° |
| 2026-05-04 23:04 | -24.37499 | -47.22243 | 34274 ft | 412 kts | 221° |
| 2026-05-04 23:04 | -24.39904 | -47.23924 | 34628 ft | 410 kts | 221° |
| 2026-05-04 23:05 | -24.42304 | -47.25598 | 34925 ft | 409 kts | 221° |
| 2026-05-04 23:05 | -24.44702 | -47.27269 | 35230 ft | 408 kts | 221° |
| 2026-05-04 23:05 | -24.47095 | -47.28935 | 35557 ft | 406 kts | 221° |
| 2026-05-04 23:05 | -24.49474 | -47.30591 | 35883 ft | 404 kts | 221° |
| 2026-05-04 23:06 | -24.51845 | -47.32243 | 36101 ft | 403 kts | 221° |
| 2026-05-04 23:06 | -24.53410 | -47.33334 | 36148 ft | 402 kts | 221° |
| 2026-05-04 23:06 | -24.58121 | -47.36621 | 36150 ft | 400 kts | 221° |
| 2026-05-04 23:07 | -24.62781 | -47.39876 | 36152 ft | 401 kts | 221° |
| 2026-05-04 23:07 | -24.67524 | -47.43190 | 36147 ft | 400 kts | 221° |
| 2026-05-04 23:08 | -24.72226 | -47.46480 | 36150 ft | 401 kts | 221° |
| 2026-05-04 23:08 | -24.76927 | -47.49771 | 36154 ft | 401 kts | 221° |
| 2026-05-04 23:09 | -24.79288 | -47.51425 | 36312 ft | 402 kts | 221° |
| 2026-05-04 23:09 | -24.81646 | -47.53076 | 36632 ft | 400 kts | 221° |
| 2026-05-04 23:09 | -24.83990 | -47.54718 | 36924 ft | 399 kts | 221° |
| 2026-05-04 23:09 | -24.86297 | -47.56335 | 37191 ft | 397 kts | 221° |
| 2026-05-04 23:10 | -24.88626 | -47.57969 | 37449 ft | 396 kts | 221° |
| 2026-05-04 23:10 | -24.90948 | -47.59600 | 37693 ft | 395 kts | 221° |
| 2026-05-04 23:10 | -24.93266 | -47.61228 | 37939 ft | 394 kts | 221° |
| 2026-05-04 23:10 | -24.95575 | -47.62851 | 38130 ft | 394 kts | 221° |
| 2026-05-04 23:11 | -25.00182 | -47.66090 | 38148 ft | 392 kts | 220° |
| 2026-05-04 23:11 | -25.04688 | -47.69264 | 38245 ft | 394 kts | 220° |
| 2026-05-04 23:12 | -25.06997 | -47.70890 | 38450 ft | 394 kts | 220° |
| 2026-05-04 23:12 | -25.09305 | -47.72515 | 38661 ft | 393 kts | 220° |
| 2026-05-04 23:12 | -25.11605 | -47.74135 | 38841 ft | 392 kts | 220° |
| 2026-05-04 23:12 | -25.13903 | -47.75756 | 38992 ft | 392 kts | 220° |
| 2026-05-04 23:13 | -25.16205 | -47.77380 | 39119 ft | 392 kts | 220° |
| 2026-05-04 23:13 | -25.18504 | -47.79003 | 39250 ft | 392 kts | 220° |
| 2026-05-04 23:13 | -25.20801 | -47.80625 | 39377 ft | 392 kts | 220° |
| 2026-05-04 23:13 | -25.23102 | -47.82250 | 39492 ft | 392 kts | 220° |
| 2026-05-04 23:14 | -25.25400 | -47.83874 | 39613 ft | 392 kts | 220° |
| 2026-05-04 23:14 | -25.27701 | -47.85501 | 39720 ft | 392 kts | 220° |
| 2026-05-04 23:14 | -25.29999 | -47.87126 | 39834 ft | 392 kts | 220° |
| 2026-05-04 23:14 | -25.32298 | -47.88753 | 39949 ft | 392 kts | 220° |
| 2026-05-04 23:15 | -25.34562 | -47.90357 | 40057 ft | 392 kts | 220° |
| 2026-05-04 23:15 | -25.36857 | -47.91985 | 40137 ft | 392 kts | 220° |
| 2026-05-04 23:15 | -25.41445 | -47.95239 | 40149 ft | 391 kts | 220° |
| 2026-05-04 23:16 | -25.46023 | -47.98490 | 40154 ft | 391 kts | 220° |
| 2026-05-04 23:16 | -25.50605 | -48.01746 | 40152 ft | 391 kts | 220° |
| 2026-05-04 23:17 | -25.55183 | -48.05003 | 40149 ft | 391 kts | 220° |
| 2026-05-04 23:17 | -25.59755 | -48.08258 | 40150 ft | 391 kts | 220° |
| 2026-05-04 23:18 | -25.64328 | -48.11516 | 40157 ft | 391 kts | 220° |
| 2026-05-04 23:18 | -25.68903 | -48.14770 | 40152 ft | 391 kts | 220° |
| 2026-05-04 23:19 | -25.73475 | -48.18024 | 40145 ft | 390 kts | 220° |
| 2026-05-04 23:19 | -25.78044 | -48.21280 | 40152 ft | 390 kts | 220° |
| 2026-05-04 23:20 | -25.82610 | -48.24536 | 40153 ft | 390 kts | 220° |
| 2026-05-04 23:20 | -25.87174 | -48.27795 | 40151 ft | 390 kts | 220° |
| 2026-05-04 23:21 | -25.91740 | -48.31058 | 40152 ft | 390 kts | 219° |
| 2026-05-04 23:21 | -25.96269 | -48.34297 | 40151 ft | 390 kts | 219° |
| 2026-05-04 23:22 | -26.00828 | -48.37560 | 40150 ft | 390 kts | 219° |
| 2026-05-04 23:22 | -26.05386 | -48.40828 | 40150 ft | 390 kts | 219° |
| 2026-05-04 23:23 | -26.09942 | -48.44096 | 40150 ft | 390 kts | 219° |
| 2026-05-04 23:23 | -26.14499 | -48.47368 | 40152 ft | 390 kts | 219° |
| 2026-05-04 23:24 | -26.19052 | -48.50640 | 40154 ft | 390 kts | 219° |
| 2026-05-04 23:24 | -26.23607 | -48.53917 | 40157 ft | 390 kts | 219° |
| 2026-05-04 23:25 | -26.28163 | -48.57197 | 40159 ft | 390 kts | 219° |
| 2026-05-04 23:25 | -26.32717 | -48.60479 | 40151 ft | 390 kts | 219° |
| 2026-05-04 23:26 | -26.34990 | -48.62116 | 40026 ft | 387 kts | 219° |
| 2026-05-04 23:26 | -26.37244 | -48.63742 | 39634 ft | 385 kts | 219° |
| 2026-05-04 23:26 | -26.39497 | -48.65369 | 39060 ft | 386 kts | 219° |
| 2026-05-04 23:26 | -26.41751 | -48.66998 | 38344 ft | 387 kts | 219° |
| 2026-05-04 23:27 | -26.44016 | -48.68637 | 37534 ft | 390 kts | 219° |
| 2026-05-04 23:27 | -26.46300 | -48.70290 | 36732 ft | 393 kts | 218° |
| 2026-05-04 23:27 | -26.48583 | -48.71950 | 36314 ft | 390 kts | 219° |
| 2026-05-04 23:27 | -26.50865 | -48.73633 | 36186 ft | 397 kts | 219° |
| 2026-05-04 23:28 | -26.55521 | -48.77080 | 36153 ft | 402 kts | 218° |
| 2026-05-04 23:28 | -26.60176 | -48.80515 | 36150 ft | 401 kts | 218° |
| 2026-05-04 23:29 | -26.64836 | -48.83958 | 36152 ft | 401 kts | 218° |
| 2026-05-04 23:29 | -26.69477 | -48.87387 | 36146 ft | 399 kts | 216° |
| 2026-05-04 23:30 | -26.73360 | -48.90216 | 36151 ft | 399 kts | 216° |
| 2026-05-04 23:30 | -26.76103 | -48.92213 | 36150 ft | 399 kts | 216° |
| 2026-05-04 23:31 | -26.80745 | -48.95603 | 36147 ft | 399 kts | 216° |
| 2026-05-04 23:31 | -26.85390 | -48.99000 | 36156 ft | 399 kts | 216° |
| 2026-05-04 23:32 | -26.90027 | -49.02395 | 36159 ft | 398 kts | 216° |
| 2026-05-04 23:32 | -26.94606 | -49.05747 | 36160 ft | 398 kts | 216° |
| 2026-05-04 23:33 | -26.99232 | -49.09140 | 36173 ft | 397 kts | 216° |
| 2026-05-04 23:33 | -27.03841 | -49.12523 | 36159 ft | 396 kts | 216° |
| 2026-05-04 23:34 | -27.08429 | -49.15899 | 36159 ft | 396 kts | 216° |
| 2026-05-04 23:34 | -27.13027 | -49.19284 | 36159 ft | 396 kts | 216° |
| 2026-05-04 23:35 | -27.17602 | -49.22656 | 36159 ft | 396 kts | 216° |
| 2026-05-04 23:35 | -27.22162 | -49.26020 | 36166 ft | 396 kts | 216° |
| 2026-05-04 23:36 | -27.26764 | -49.29416 | 36171 ft | 396 kts | 216° |
| 2026-05-04 23:36 | -27.31364 | -49.32815 | 36180 ft | 396 kts | 216° |
| 2026-05-04 23:37 | -27.35922 | -49.36188 | 36174 ft | 395 kts | 215° |
| 2026-05-04 23:37 | -27.40495 | -49.39569 | 36177 ft | 395 kts | 215° |
| 2026-05-04 23:38 | -27.45086 | -49.42970 | 36178 ft | 395 kts | 216° |
| 2026-05-04 23:38 | -27.49632 | -49.46343 | 36182 ft | 395 kts | 216° |
| 2026-05-04 23:39 | -27.54208 | -49.49742 | 36178 ft | 395 kts | 216° |
| 2026-05-04 23:39 | -27.58752 | -49.53114 | 36186 ft | 394 kts | 216° |
| 2026-05-04 23:40 | -27.63299 | -49.56484 | 36184 ft | 395 kts | 216° |
| 2026-05-04 23:40 | -27.67769 | -49.59801 | 36185 ft | 394 kts | 216° |
| 2026-05-04 23:41 | -27.72381 | -49.63228 | 36184 ft | 394 kts | 216° |
| 2026-05-04 23:41 | -27.76981 | -49.66610 | 36192 ft | 395 kts | 214° |
| 2026-05-04 23:42 | -27.81629 | -49.69899 | 36188 ft | 394 kts | 214° |
| 2026-05-04 23:42 | -27.86240 | -49.73172 | 36191 ft | 394 kts | 214° |
| 2026-05-04 23:43 | -27.90874 | -49.76478 | 36187 ft | 393 kts | 214° |
| 2026-05-04 23:43 | -27.95496 | -49.79783 | 36187 ft | 393 kts | 214° |
| 2026-05-04 23:44 | -28.00116 | -49.83088 | 36187 ft | 393 kts | 214° |
| 2026-05-04 23:44 | -28.04733 | -49.86395 | 36186 ft | 393 kts | 214° |
| 2026-05-04 23:45 | -28.09351 | -49.89708 | 36182 ft | 393 kts | 214° |
| 2026-05-04 23:45 | -28.13969 | -49.93022 | 36181 ft | 393 kts | 214° |
| 2026-05-04 23:46 | -28.18573 | -49.96331 | 36178 ft | 393 kts | 215° |
| 2026-05-04 23:46 | -28.23166 | -49.99634 | 36180 ft | 393 kts | 215° |
| 2026-05-04 23:47 | -28.27739 | -50.02928 | 36179 ft | 394 kts | 215° |
| 2026-05-04 23:47 | -28.32331 | -50.06237 | 36172 ft | 394 kts | 215° |
| 2026-05-04 23:48 | -28.36905 | -50.09538 | 36180 ft | 394 kts | 215° |
| 2026-05-04 23:48 | -28.41471 | -50.12835 | 36171 ft | 394 kts | 215° |
| 2026-05-04 23:49 | -28.46086 | -50.16171 | 36169 ft | 394 kts | 215° |
| 2026-05-04 23:49 | -28.50701 | -50.19514 | 36167 ft | 394 kts | 215° |
| 2026-05-04 23:50 | -28.55314 | -50.22856 | 36163 ft | 392 kts | 215° |
| 2026-05-04 23:50 | -28.59923 | -50.26199 | 36158 ft | 393 kts | 215° |
| 2026-05-04 23:51 | -28.64534 | -50.29547 | 36156 ft | 393 kts | 215° |
| 2026-05-04 23:51 | -28.69148 | -50.32901 | 35830 ft | 393 kts | 215° |
| 2026-05-04 23:52 | -28.71460 | -50.34584 | 35161 ft | 397 kts | 214° |
| 2026-05-04 23:52 | -28.73752 | -50.36389 | 34243 ft | 403 kts | 218° |
| 2026-05-04 23:52 | -28.75988 | -50.38318 | 33484 ft | 403 kts | 218° |
| 2026-05-04 23:52 | -28.78229 | -50.40228 | 32731 ft | 402 kts | 217° |
| 2026-05-04 23:53 | -28.80472 | -50.42135 | 31961 ft | 402 kts | 217° |
| 2026-05-04 23:53 | -28.82720 | -50.44047 | 31121 ft | 403 kts | 217° |
| 2026-05-04 23:53 | -28.84953 | -50.45949 | 30606 ft | 398 kts | 217° |
| 2026-05-04 23:53 | -28.87160 | -50.47833 | 29981 ft | 395 kts | 217° |
| 2026-05-04 23:54 | -28.89336 | -50.49692 | 29480 ft | 387 kts | 217° |
| 2026-05-04 23:54 | -28.91477 | -50.51521 | 28962 ft | 382 kts | 217° |
| 2026-05-04 23:54 | -28.92878 | -50.52720 | 28619 ft | 378 kts | 218° |
| 2026-05-04 23:54 | -28.95643 | -50.55086 | 27945 ft | 371 kts | 218° |
| 2026-05-04 23:55 | -28.97696 | -50.56843 | 27444 ft | 367 kts | 218° |
| 2026-05-04 23:55 | -28.99725 | -50.58582 | 26961 ft | 362 kts | 218° |
| 2026-05-04 23:55 | -29.03712 | -50.62001 | 25989 ft | 373 kts | 218° |
| 2026-05-04 23:56 | -29.05849 | -50.63838 | 25475 ft | 392 kts | 218° |
| 2026-05-04 23:56 | -29.07328 | -50.65108 | 25160 ft | 395 kts | 218° |
| 2026-05-04 23:56 | -29.09510 | -50.66982 | 24547 ft | 399 kts | 218° |
| 2026-05-04 23:56 | -29.11697 | -50.68916 | 24002 ft | 396 kts | 221° |
| 2026-05-04 23:57 | -29.13674 | -50.71067 | 23401 ft | 391 kts | 227° |
| 2026-05-04 23:57 | -29.15448 | -50.73379 | 22901 ft | 383 kts | 229° |
| 2026-05-04 23:57 | -29.17192 | -50.75650 | 22370 ft | 377 kts | 229° |
| 2026-05-04 23:57 | -29.18912 | -50.77877 | 21863 ft | 371 kts | 229° |
| 2026-05-04 23:58 | -29.20609 | -50.80074 | 21340 ft | 365 kts | 229° |
| 2026-05-04 23:58 | -29.22280 | -50.82243 | 20832 ft | 361 kts | 229° |
| 2026-05-04 23:58 | -29.23928 | -50.84384 | 20328 ft | 357 kts | 229° |
| 2026-05-04 23:58 | -29.25556 | -50.86502 | 19849 ft | 352 kts | 229° |
| 2026-05-04 23:59 | -29.27186 | -50.88624 | 19584 ft | 359 kts | 230° |
| 2026-05-04 23:59 | -29.28857 | -50.90802 | 19127 ft | 367 kts | 229° |
| 2026-05-04 23:59 | -29.30552 | -50.93015 | 18488 ft | 372 kts | 229° |
| 2026-05-04 23:59 | -29.32259 | -50.95242 | 17895 ft | 370 kts | 230° |
| 2026-05-05 00:00 | -29.33944 | -50.97440 | 17346 ft | 365 kts | 230° |
| 2026-05-05 00:00 | -29.35051 | -50.98884 | 16981 ft | 361 kts | 230° |
| 2026-05-05 00:00 | -29.37246 | -51.01750 | 16324 ft | 353 kts | 230° |
| 2026-05-05 00:00 | -29.38829 | -51.03815 | 16117 ft | 341 kts | 230° |
| 2026-05-05 00:01 | -29.40407 | -51.05861 | 15916 ft | 342 kts | 230° |
| 2026-05-05 00:01 | -29.41988 | -51.07905 | 15724 ft | 343 kts | 230° |
| 2026-05-05 00:01 | -29.43557 | -51.09933 | 15527 ft | 337 kts | 230° |
| 2026-05-05 00:01 | -29.45091 | -51.11913 | 15329 ft | 326 kts | 230° |
| 2026-05-05 00:02 | -29.46573 | -51.13823 | 15138 ft | 316 kts | 231° |
| 2026-05-05 00:02 | -29.48019 | -51.15697 | 14632 ft | 315 kts | 231° |
| 2026-05-05 00:02 | -29.49488 | -51.17622 | 13778 ft | 326 kts | 231° |
| 2026-05-05 00:02 | -29.51016 | -51.19621 | 12715 ft | 339 kts | 230° |
| 2026-05-05 00:03 | -29.52617 | -51.21672 | 11659 ft | 350 kts | 231° |
| 2026-05-05 00:03 | -29.54236 | -51.23745 | 10775 ft | 351 kts | 231° |
| 2026-05-05 00:03 | -29.55812 | -51.25813 | 10487 ft | 329 kts | 232° |
| 2026-05-05 00:03 | -29.57244 | -51.27705 | 10494 ft | 307 kts | 230° |
| 2026-05-05 00:04 | -29.58595 | -51.29497 | 10302 ft | 287 kts | 230° |
| 2026-05-05 00:04 | -29.59882 | -51.31192 | 9882 ft | 278 kts | 230° |
| 2026-05-05 00:04 | -29.61155 | -51.32862 | 9424 ft | 277 kts | 230° |
| 2026-05-05 00:04 | -29.62540 | -51.34311 | 9033 ft | 277 kts | 215° |
| 2026-05-05 00:05 | -29.64261 | -51.35294 | 8610 ft | 277 kts | 200° |
| 2026-05-05 00:05 | -29.66096 | -51.35950 | 8193 ft | 276 kts | 199° |
| 2026-05-05 00:05 | -29.67925 | -51.36618 | 7802 ft | 275 kts | 199° |
| 2026-05-05 00:05 | -29.69737 | -51.37288 | 7440 ft | 272 kts | 200° |
| 2026-05-05 00:06 | -29.71503 | -51.37925 | 7323 ft | 260 kts | 196° |
| 2026-05-05 00:06 | -29.73242 | -51.38286 | 7223 ft | 249 kts | 190° |
| 2026-05-05 00:06 | -29.74914 | -51.38571 | 7125 ft | 237 kts | 191° |
| 2026-05-05 00:06 | -29.76509 | -51.38853 | 7030 ft | 226 kts | 191° |
| 2026-05-05 00:07 | -29.78045 | -51.39127 | 6812 ft | 222 kts | 191° |
| 2026-05-05 00:07 | -29.79567 | -51.39401 | 6520 ft | 221 kts | 191° |
| 2026-05-05 00:07 | -29.81087 | -51.39673 | 6241 ft | 221 kts | 191° |
| 2026-05-05 00:07 | -29.82603 | -51.39944 | 5946 ft | 220 kts | 191° |
| 2026-05-05 00:08 | -29.84112 | -51.40213 | 5669 ft | 219 kts | 191° |
| 2026-05-05 00:08 | -29.85617 | -51.40481 | 5384 ft | 218 kts | 191° |
| 2026-05-05 00:08 | -29.87116 | -51.40749 | 5119 ft | 217 kts | 191° |
| 2026-05-05 00:08 | -29.88608 | -51.41014 | 4845 ft | 217 kts | 191° |
| 2026-05-05 00:09 | -29.90074 | -51.41372 | 4570 ft | 215 kts | 196° |
| 2026-05-05 00:09 | -29.91512 | -51.41755 | 4418 ft | 207 kts | 194° |
| 2026-05-05 00:09 | -29.92860 | -51.42050 | 4365 ft | 188 kts | 192° |
| 2026-05-05 00:09 | -29.94101 | -51.42276 | 4256 ft | 174 kts | 191° |
| 2026-05-05 00:10 | -29.95255 | -51.42447 | 4162 ft | 161 kts | 189° |
| 2026-05-05 00:10 | -29.96328 | -51.42574 | 4079 ft | 149 kts | 188° |
| 2026-05-05 00:10 | -29.97333 | -51.42663 | 3868 ft | 146 kts | 186° |
| 2026-05-05 00:10 | -29.98323 | -51.42390 | 3580 ft | 152 kts | 148° |
| 2026-05-05 00:11 | -29.98942 | -51.41415 | 3331 ft | 155 kts | 105° |
| 2026-05-05 00:11 | -29.99000 | -51.40176 | 3092 ft | 155 kts | 90° |
| 2026-05-05 00:11 | -29.99005 | -51.38931 | 2849 ft | 155 kts | 91° |
| 2026-05-05 00:11 | -29.99025 | -51.37694 | 2617 ft | 154 kts | 92° |
| 2026-05-05 00:12 | -29.99051 | -51.36465 | 2402 ft | 152 kts | 92° |
| 2026-05-05 00:12 | -29.99079 | -51.35275 | 2191 ft | 145 kts | 92° |
| 2026-05-05 00:12 | -29.99106 | -51.34130 | 1962 ft | 144 kts | 92° |
| 2026-05-05 00:12 | -29.99132 | -51.32970 | 1734 ft | 144 kts | 92° |
| 2026-05-05 00:13 | -29.99158 | -51.31825 | 1514 ft | 143 kts | 92° |
| 2026-05-05 00:13 | -29.99182 | -51.30690 | 1413 ft | 140 kts | 92° |
| 2026-05-05 00:13 | -29.99207 | -51.29550 | 1407 ft | 143 kts | 92° |
| 2026-05-05 00:13 | -29.99231 | -51.28408 | 1407 ft | 143 kts | 92° |
| 2026-05-05 00:14 | -29.99255 | -51.27267 | 1408 ft | 143 kts | 92° |
| 2026-05-05 00:14 | -29.99278 | -51.26123 | 1406 ft | 142 kts | 92° |
| 2026-05-05 00:14 | -29.99302 | -51.24980 | 1400 ft | 143 kts | 91° |
| 2026-05-05 00:14 | -29.99321 | -51.23806 | 1048 ft | 146 kts | 92° |
| 2026-05-05 00:15 | -29.99351 | -51.22670 | 795 ft | 139 kts | 93° |
| 2026-05-05 00:15 | -29.99397 | -51.21550 | 609 ft | 140 kts | 92° |
| 2026-05-05 00:15 | -29.99409 | -51.20432 | 421 ft | 139 kts | 90° |
| 2026-05-05 00:15 | -29.99407 | -51.19319 | 213 ft | 138 kts | 92° |
| 2026-05-05 00:16 | -29.99448 | -51.18220 | 37 ft | 137 kts | 86° |
| 2026-05-05 00:16 | -29.99457 | -51.17361 | 18 ft | 44 kts | 93° |
| 2026-05-05 00:16 | -29.99464 | -51.17067 | 16 ft | 37 kts | 91° |
| 2026-05-05 00:16 | -29.99464 | -51.16776 | 17 ft | 21 kts | 74° |
| 2026-05-05 00:17 | -29.99419 | -51.16743 | 18 ft | 8 kts | 19° |
| 2026-05-05 00:17 | -29.99354 | -51.16741 | 18 ft | 11 kts | 0° |
| 2026-05-05 00:17 | -29.99292 | -51.16769 | 19 ft | 9 kts | 298° |
| 2026-05-05 00:17 | -29.99282 | -51.16842 | 19 ft | 9 kts | 274° |
| 2026-05-05 00:18 | -29.99276 | -51.16940 | 19 ft | 13 kts | 272° |
| 2026-05-05 00:18 | -29.99275 | -51.17043 | 19 ft | 12 kts | 270° |
| 2026-05-05 00:18 | -29.99272 | -51.17135 | 19 ft | 11 kts | 273° |
| 2026-05-05 00:18 | -29.99271 | -51.17215 | 19 ft | 9 kts | 271° |
| 2026-05-05 00:19 | -29.99269 | -51.17284 | 19 ft | 8 kts | 272° |
| 2026-05-05 00:19 | -29.99268 | -51.17343 | 19 ft | 7 kts | 272° |
| 2026-05-05 00:19 | -29.99251 | -51.17380 | 20 ft | 4 kts | 318° |
| 2026-05-05 00:19 | -29.99229 | -51.17389 | 19 ft | 4 kts | 345° |
| 2026-05-05 00:20 | -29.99191 | -51.17412 | 19 ft | 7 kts | 302° |
| 2026-05-05 00:20 | -29.99181 | -51.17473 | 19 ft | 8 kts | 275° |
| 2026-05-05 00:20 | -29.99177 | -51.17537 | 19 ft | 7 kts | 280° |
| 2026-05-05 00:20 | -29.99149 | -51.17567 | 19 ft | 5 kts | 331° |
| 2026-05-05 00:21 | -29.99123 | -51.17580 | 19 ft | 3 kts | 339° |
| 2026-05-05 00:21 | -29.99105 | -51.17588 | 19 ft | 2 kts | 339° |
| 2026-05-05 00:21 | -29.99099 | -51.17590 | 19 ft | 0 kts | 340° |